sensor_id;sensor_type;location;lat;lon;timestamp;pressure;altitude;pressure_sealevel;temperature;humidity
43683;BME280;29285;52.128;21.060;2023-06-26T04:18:16;100266.92;;;18.27;100.00
43683;BME280;29285;52.128;21.060;2023-06-26T04:23:17;100270.75;;;18.49;100.00
43683;BME280;29285;52.128;21.060;2023-06-26T04:28:18;100265.20;;;18.75;100.00
43683;BME280;29285;52.128;21.060;2023-06-26T04:33:19;100273.02;;;18.95;100.00
43683;BME280;29285;52.128;21.060;2023-06-26T04:38:20;100274.30;;;19.04;100.00
43683;BME280;29285;52.128;21.060;2023-06-26T04:43:22;100269.19;;;19.08;100.00
43683;BME280;29285;52.128;21.060;2023-06-26T04:48:23;100264.13;;;19.41;100.00
43683;BME280;29285;52.128;21.060;2023-06-26T04:53:24;100267.29;;;19.76;100.00
43683;BME280;29285;52.128;21.060;2023-06-26T04:58:25;100263.48;;;20.04;100.00
43683;BME280;29285;52.128;21.060;2023-06-26T05:03:27;100264.02;;;20.13;100.00
43683;BME280;29285;52.128;21.060;2023-06-26T05:08:28;100265.66;;;20.09;100.00
43683;BME280;29285;52.128;21.060;2023-06-26T05:13:28;100268.11;;;20.13;100.00
43683;BME280;29285;52.128;21.060;2023-06-26T05:18:30;100267.24;;;20.25;100.00
43683;BME280;29285;52.128;21.060;2023-06-26T05:23:32;100266.48;;;20.26;100.00
43683;BME280;29285;52.128;21.060;2023-06-26T05:28:33;100263.98;;;20.42;100.00
43683;BME280;29285;52.128;21.060;2023-06-26T05:33:37;100258.09;;;20.85;100.00
43683;BME280;29285;52.128;21.060;2023-06-26T05:38:38;100253.59;;;20.84;100.00
43683;BME280;29285;52.128;21.060;2023-06-26T05:43:39;100260.33;;;20.77;100.00
43683;BME280;29285;52.128;21.060;2023-06-26T05:48:41;100257.44;;;20.72;100.00
43683;BME280;29285;52.128;21.060;2023-06-26T05:53:42;100254.92;;;20.73;100.00
43683;BME280;29285;52.128;21.060;2023-06-26T05:58:44;100253.41;;;20.87;100.00
43683;BME280;29285;52.128;21.060;2023-06-26T06:03:46;100247.02;;;20.94;100.00
43683;BME280;29285;52.128;21.060;2023-06-26T06:08:47;100242.36;;;21.04;100.00
43683;BME280;29285;52.128;21.060;2023-06-26T06:13:48;100241.61;;;21.16;100.00
43683;BME280;29285;52.128;21.060;2023-06-26T06:18:49;100242.17;;;21.30;100.00
43683;BME280;29285;52.128;21.060;2023-06-26T06:23:50;100241.02;;;21.32;100.00
43683;BME280;29285;52.128;21.060;2023-06-26T06:28:52;100241.09;;;21.33;100.00
43683;BME280;29285;52.128;21.060;2023-06-26T06:33:53;100236.84;;;21.42;100.00
43683;BME280;29285;52.128;21.060;2023-06-26T06:38:54;100231.73;;;21.61;100.00
43683;BME280;29285;52.128;21.060;2023-06-26T06:43:56;100235.39;;;21.82;100.00
43683;BME280;29285;52.128;21.060;2023-06-26T06:48:58;100235.55;;;21.96;100.00
43683;BME280;29285;52.128;21.060;2023-06-26T06:53:59;100231.98;;;22.07;100.00
43683;BME280;29285;52.128;21.060;2023-06-26T06:59:01;100234.14;;;22.28;100.00
43683;BME280;29285;52.128;21.060;2023-06-26T07:04:02;100225.90;;;22.38;100.00
43683;BME280;29285;52.128;21.060;2023-06-26T07:09:04;100232.46;;;22.32;100.00
43683;BME280;29285;52.128;21.060;2023-06-26T07:14:06;100225.98;;;22.50;100.00
43683;BME280;29285;52.128;21.060;2023-06-26T07:19:07;100222.67;;;22.60;100.00
43683;BME280;29285;52.128;21.060;2023-06-26T07:24:08;100222.58;;;22.69;100.00
43683;BME280;29285;52.128;21.060;2023-06-26T07:29:09;100218.42;;;22.76;100.00
43683;BME280;29285;52.128;21.060;2023-06-26T07:34:11;100216.02;;;22.85;100.00
43683;BME280;29285;52.128;21.060;2023-06-26T07:39:12;100215.39;;;22.92;100.00
43683;BME280;29285;52.128;21.060;2023-06-26T07:44:13;100215.52;;;23.05;100.00
43683;BME280;29285;52.128;21.060;2023-06-26T07:49:15;100210.75;;;23.15;100.00
43683;BME280;29285;52.128;21.060;2023-06-26T07:54:16;100209.69;;;23.15;100.00
43683;BME280;29285;52.128;21.060;2023-06-26T07:59:17;100208.46;;;23.20;100.00
43683;BME280;29285;52.128;21.060;2023-06-26T08:04:19;100208.85;;;23.29;100.00
43683;BME280;29285;52.128;21.060;2023-06-26T08:09:26;100208.36;;;23.44;100.00
43683;BME280;29285;52.128;21.060;2023-06-26T08:14:28;100208.45;;;23.58;100.00
43683;BME280;29285;52.128;21.060;2023-06-26T08:19:29;100203.34;;;23.72;100.00
43683;BME280;29285;52.128;21.060;2023-06-26T08:24:30;100198.86;;;23.90;100.00
43683;BME280;29285;52.128;21.060;2023-06-26T08:29:31;100200.56;;;24.03;100.00
43683;BME280;29285;52.128;21.060;2023-06-26T08:34:32;100198.59;;;23.94;100.00
43683;BME280;29285;52.128;21.060;2023-06-26T08:39:33;100197.66;;;23.75;100.00
43683;BME280;29285;52.128;21.060;2023-06-26T08:44:34;100196.16;;;23.63;100.00
43683;BME280;29285;52.128;21.060;2023-06-26T08:55:02;100196.02;;;23.99;100.00
43683;BME280;29285;52.128;21.060;2023-06-26T09:00:07;100193.56;;;24.14;100.00
43683;BME280;29285;52.128;21.060;2023-06-26T09:05:09;100188.82;;;24.30;100.00
43683;BME280;29285;52.128;21.060;2023-06-26T09:10:10;100188.00;;;24.43;100.00
43683;BME280;29285;52.128;21.060;2023-06-26T09:15:14;100185.73;;;24.52;100.00
43683;BME280;29285;52.128;21.060;2023-06-26T09:20:16;100180.50;;;24.58;100.00
43683;BME280;29285;52.128;21.060;2023-06-26T09:25:17;100174.02;;;24.64;100.00
43683;BME280;29285;52.128;21.060;2023-06-26T09:30:20;100172.45;;;24.75;100.00
43683;BME280;29285;52.128;21.060;2023-06-26T09:35:21;100173.48;;;24.75;100.00
43683;BME280;29285;52.128;21.060;2023-06-26T09:40:22;100171.90;;;24.87;100.00
43683;BME280;29285;52.128;21.060;2023-06-26T09:45:24;100171.33;;;24.94;100.00
43683;BME280;29285;52.128;21.060;2023-06-26T09:50:25;100169.20;;;25.01;100.00
43683;BME280;29285;52.128;21.060;2023-06-26T09:55:28;100161.19;;;25.10;100.00
43683;BME280;29285;52.128;21.060;2023-06-26T10:00:30;100161.67;;;25.10;100.00
43683;BME280;29285;52.128;21.060;2023-06-26T10:05:32;100156.12;;;25.00;100.00
43683;BME280;29285;52.128;21.060;2023-06-26T10:10:36;100155.73;;;25.05;100.00
43683;BME280;29285;52.128;21.060;2023-06-26T10:15:39;100156.81;;;25.18;100.00
43683;BME280;29285;52.128;21.060;2023-06-26T10:20:42;100153.73;;;25.26;100.00
43683;BME280;29285;52.128;21.060;2023-06-26T10:25:48;100151.69;;;25.13;100.00
43683;BME280;29285;52.128;21.060;2023-06-26T10:30:52;100151.91;;;25.11;100.00
43683;BME280;29285;52.128;21.060;2023-06-26T10:35:54;100148.45;;;25.06;100.00
43683;BME280;29285;52.128;21.060;2023-06-26T10:41:12;100135.00;;;25.01;100.00
43683;BME280;29285;52.128;21.060;2023-06-26T10:46:15;100134.34;;;25.11;100.00
43683;BME280;29285;52.128;21.060;2023-06-26T10:51:18;100129.95;;;25.15;100.00
43683;BME280;29285;52.128;21.060;2023-06-26T10:56:19;100120.96;;;25.34;100.00
43683;BME280;29285;52.128;21.060;2023-06-26T11:01:23;100124.05;;;25.62;100.00
43683;BME280;29285;52.128;21.060;2023-06-26T11:06:25;100118.15;;;25.84;100.00
43683;BME280;29285;52.128;21.060;2023-06-26T15:23:36;99870.98;;;30.77;79.90
43683;BME280;29285;52.128;21.060;2023-06-26T15:28:37;99868.29;;;30.60;79.19
43683;BME280;29285;52.128;21.060;2023-06-26T15:33:37;99864.33;;;30.32;78.32
43683;BME280;29285;52.128;21.060;2023-06-26T15:38:38;99860.05;;;30.22;77.61
43683;BME280;29285;52.128;21.060;2023-06-26T15:43:40;99855.40;;;30.30;77.40
43683;BME280;29285;52.128;21.060;2023-06-26T15:48:44;99850.11;;;29.95;76.37
43683;BME280;29285;52.128;21.060;2023-06-26T15:53:45;99840.53;;;30.12;76.56
43683;BME280;29285;52.128;21.060;2023-06-26T15:58:46;99837.84;;;30.42;76.90
43683;BME280;29285;52.128;21.060;2023-06-26T16:03:49;99836.30;;;30.53;76.63
43683;BME280;29285;52.128;21.060;2023-06-26T16:08:50;99832.95;;;30.86;76.58
43683;BME280;29285;52.128;21.060;2023-06-26T16:13:53;99831.11;;;30.98;76.12
43683;BME280;29285;52.128;21.060;2023-06-26T16:18:55;99819.63;;;31.03;75.60
43683;BME280;29285;52.128;21.060;2023-06-26T16:23:56;99822.95;;;30.99;74.70
43683;BME280;29285;52.128;21.060;2023-06-26T16:28:57;99821.23;;;30.98;74.23
43683;BME280;29285;52.128;21.060;2023-06-26T16:34:00;99820.84;;;31.08;73.71
43683;BME280;29285;52.128;21.060;2023-06-26T16:39:01;99813.70;;;31.12;73.43
43683;BME280;29285;52.128;21.060;2023-06-26T16:44:02;99818.73;;;31.21;73.08
43683;BME280;29285;52.128;21.060;2023-06-26T16:49:03;99819.04;;;31.48;72.90
43683;BME280;29285;52.128;21.060;2023-06-26T16:54:05;99814.14;;;31.78;72.66
43683;BME280;29285;52.128;21.060;2023-06-26T16:59:07;99810.54;;;31.67;71.46
43683;BME280;29285;52.128;21.060;2023-06-26T17:04:08;99814.59;;;31.71;70.83
43683;BME280;29285;52.128;21.060;2023-06-26T17:09:09;99809.40;;;31.89;70.49
43683;BME280;29285;52.128;21.060;2023-06-26T17:14:10;99812.99;;;32.06;70.17
43683;BME280;29285;52.128;21.060;2023-06-26T17:19:12;99818.75;;;32.08;69.68
43683;BME280;29285;52.128;21.060;2023-06-26T17:24:13;99822.61;;;32.02;69.16
43683;BME280;29285;52.128;21.060;2023-06-26T17:29:14;99824.02;;;31.97;68.77
43683;BME280;29285;52.128;21.060;2023-06-26T17:34:15;99826.13;;;31.82;68.02
43683;BME280;29285;52.128;21.060;2023-06-26T17:39:16;99830.71;;;31.65;67.73
43683;BME280;29285;52.128;21.060;2023-06-26T17:44:17;99823.45;;;31.43;67.14
43683;BME280;29285;52.128;21.060;2023-06-26T17:49:18;99818.01;;;31.13;66.64
43683;BME280;29285;52.128;21.060;2023-06-26T17:54:20;99812.84;;;30.68;65.74
43683;BME280;29285;52.128;21.060;2023-06-26T17:59:21;99816.73;;;30.20;64.82
43683;BME280;29285;52.128;21.060;2023-06-26T18:04:22;99811.30;;;29.77;64.22
43683;BME280;29285;52.128;21.060;2023-06-26T18:09:23;99810.57;;;29.30;63.88
43683;BME280;29285;52.128;21.060;2023-06-26T18:14:24;99804.09;;;28.94;63.82
43683;BME280;29285;52.128;21.060;2023-06-26T18:19:25;99797.70;;;28.60;63.59
43683;BME280;29285;52.128;21.060;2023-06-26T18:24:26;99805.67;;;28.26;63.33
43683;BME280;29285;52.128;21.060;2023-06-26T18:29:27;99811.17;;;27.96;63.35
43683;BME280;29285;52.128;21.060;2023-06-26T18:34:29;99810.30;;;27.67;63.38
43683;BME280;29285;52.128;21.060;2023-06-26T18:39:30;99807.27;;;27.40;63.64
43683;BME280;29285;52.128;21.060;2023-06-26T18:44:31;99808.52;;;27.10;63.71
43683;BME280;29285;52.128;21.060;2023-06-26T18:49:32;99808.48;;;26.81;63.72
43683;BME280;29285;52.128;21.060;2023-06-26T18:54:33;99804.09;;;26.59;63.82
43683;BME280;29285;52.128;21.060;2023-06-26T18:59:34;99807.79;;;26.38;63.96
43683;BME280;29285;52.128;21.060;2023-06-26T19:04:35;99808.95;;;26.13;63.85
43683;BME280;29285;52.128;21.060;2023-06-26T19:09:36;99809.44;;;25.89;63.95
43683;BME280;29285;52.128;21.060;2023-06-26T19:14:37;99806.45;;;25.73;64.17
43683;BME280;29285;52.128;21.060;2023-06-26T19:19:41;99806.23;;;25.57;64.36
43683;BME280;29285;52.128;21.060;2023-06-26T19:24:42;99807.36;;;25.37;64.52
43683;BME280;29285;52.128;21.060;2023-06-26T19:29:43;99802.67;;;25.17;64.70
43683;BME280;29285;52.128;21.060;2023-06-26T19:34:44;99795.92;;;25.03;65.03
43683;BME280;29285;52.128;21.060;2023-06-26T19:39:45;99792.00;;;24.90;65.51
43683;BME280;29285;52.128;21.060;2023-06-26T19:44:46;99795.58;;;24.79;65.88
43683;BME280;29285;52.128;21.060;2023-06-26T19:49:47;99789.16;;;24.65;66.17
43683;BME280;29285;52.128;21.060;2023-06-26T19:54:48;99785.69;;;24.53;66.69
43683;BME280;29285;52.128;21.060;2023-06-26T19:59:49;99791.31;;;24.47;67.19
43683;BME280;29285;52.128;21.060;2023-06-26T20:04:50;99790.57;;;24.43;67.65
43683;BME280;29285;52.128;21.060;2023-06-26T20:09:51;99788.73;;;24.36;68.11
43683;BME280;29285;52.128;21.060;2023-06-26T20:14:52;99778.16;;;24.24;68.30
43683;BME280;29285;52.128;21.060;2023-06-26T20:19:53;99774.43;;;24.15;68.64
43683;BME280;29285;52.128;21.060;2023-06-26T20:24:54;99770.77;;;24.10;69.14
43683;BME280;29285;52.128;21.060;2023-06-26T20:29:55;99762.58;;;24.04;69.46
43683;BME280;29285;52.128;21.060;2023-06-26T20:34:55;99756.71;;;23.95;69.65
43683;BME280;29285;52.128;21.060;2023-06-26T20:39:57;99750.27;;;23.85;69.94
43683;BME280;29285;52.128;21.060;2023-06-26T20:44:58;99743.32;;;23.75;70.08
43683;BME280;29285;52.128;21.060;2023-06-26T20:50:00;99740.06;;;23.64;70.38
43683;BME280;29285;52.128;21.060;2023-06-26T20:55:02;99736.86;;;23.58;70.80
43683;BME280;29285;52.128;21.060;2023-06-26T21:00:04;99739.41;;;23.48;71.03
43683;BME280;29285;52.128;21.060;2023-06-26T21:05:06;99745.27;;;23.41;71.35
43683;BME280;29285;52.128;21.060;2023-06-26T21:10:08;99742.04;;;23.32;71.54
43683;BME280;29285;52.128;21.060;2023-06-26T21:15:09;99737.86;;;23.24;71.96
43683;BME280;29285;52.128;21.060;2023-06-26T21:20:11;99734.98;;;23.20;72.14
43683;BME280;29285;52.128;21.060;2023-06-26T21:25:12;99732.66;;;23.16;72.40
43683;BME280;29285;52.128;21.060;2023-06-26T21:30:14;99720.50;;;23.11;72.73
43683;BME280;29285;52.128;21.060;2023-06-26T21:35:16;99724.55;;;23.04;72.88
43683;BME280;29285;52.128;21.060;2023-06-26T21:40:17;99733.35;;;22.98;72.97
43683;BME280;29285;52.128;21.060;2023-06-26T21:45:19;99739.73;;;22.79;72.91
43683;BME280;29285;52.128;21.060;2023-06-26T21:50:20;99738.96;;;22.69;72.91
43683;BME280;29285;52.128;21.060;2023-06-26T21:55:21;99738.64;;;22.61;73.18
43683;BME280;29285;52.128;21.060;2023-06-26T22:00:22;99734.90;;;22.61;73.46
43683;BME280;29285;52.128;21.060;2023-06-26T22:05:25;99737.41;;;22.66;73.90
43683;BME280;29285;52.128;21.060;2023-06-26T22:10:26;99737.63;;;22.63;74.13
43683;BME280;29285;52.128;21.060;2023-06-26T22:15:27;99735.57;;;22.62;74.32
43683;BME280;29285;52.128;21.060;2023-06-26T22:20:28;99733.65;;;22.62;74.66
43683;BME280;29285;52.128;21.060;2023-06-26T22:25:29;99731.60;;;22.61;74.95
43683;BME280;29285;52.128;21.060;2023-06-26T22:30:30;99731.52;;;22.57;75.13
43683;BME280;29285;52.128;21.060;2023-06-26T22:35:31;99722.86;;;22.55;75.42
43683;BME280;29285;52.128;21.060;2023-06-26T22:40:33;99714.08;;;22.66;76.19
43683;BME280;29285;52.128;21.060;2023-06-26T22:45:34;99707.89;;;22.66;76.54
43683;BME280;29285;52.128;21.060;2023-06-26T22:50:35;99706.36;;;22.63;76.74
43683;BME280;29285;52.128;21.060;2023-06-26T22:55:37;99702.64;;;22.58;76.84
43683;BME280;29285;52.128;21.060;2023-06-26T23:00:38;99691.13;;;22.49;77.02
43683;BME280;29285;52.128;21.060;2023-06-26T23:05:39;99682.89;;;22.36;77.09
43683;BME280;29285;52.128;21.060;2023-06-26T23:10:40;99679.20;;;22.29;77.20
43683;BME280;29285;52.128;21.060;2023-06-26T23:15:41;99667.49;;;22.29;77.68
43683;BME280;29285;52.128;21.060;2023-06-26T23:20:43;99663.62;;;22.29;77.98
43683;BME280;29285;52.128;21.060;2023-06-26T23:25:45;99660.22;;;22.27;78.23
43683;BME280;29285;52.128;21.060;2023-06-26T23:30:47;99653.88;;;22.23;78.50
43683;BME280;29285;52.128;21.060;2023-06-26T23:35:48;99652.91;;;22.21;78.74
43683;BME280;29285;52.128;21.060;2023-06-26T23:40:49;99648.65;;;22.14;78.96
43683;BME280;29285;52.128;21.060;2023-06-26T23:45:50;99636.67;;;22.04;79.09
43683;BME280;29285;52.128;21.060;2023-06-26T23:50:52;99625.56;;;21.92;79.27
43683;BME280;29285;52.128;21.060;2023-06-26T23:55:53;99620.30;;;21.82;79.39
